createdAt,value
2023-04-04T00:00:53.057Z,100583.00
2023-04-04T00:02:26.233Z,100586.00
2023-04-04T00:03:59.476Z,100587.00
2023-04-04T00:05:33.256Z,100576.00
2023-04-04T00:07:06.437Z,100576.00
2023-04-04T00:08:39.533Z,100591.00
2023-04-04T00:10:12.764Z,100588.00
2023-04-04T00:11:47.604Z,100586.00
2023-04-04T00:13:20.984Z,100591.00
2023-04-04T00:14:53.177Z,100582.00
2023-04-04T00:16:26.356Z,100594.00
2023-04-04T00:17:59.486Z,100572.00
2023-04-04T00:19:32.610Z,100577.00
2023-04-04T00:21:05.953Z,100579.00
2023-04-04T00:22:39.124Z,100589.00
2023-04-04T00:24:12.407Z,100586.00
2023-04-04T00:25:51.638Z,100580.00
2023-04-04T00:27:26.154Z,100594.00
2023-04-04T00:28:59.439Z,100579.00
2023-04-04T00:30:32.732Z,100586.00
2023-04-04T00:32:06.461Z,100594.00
2023-04-04T00:33:39.875Z,100579.00
2023-04-04T00:35:13.732Z,100577.00
2023-04-04T00:36:47.679Z,100574.00
2023-04-04T00:38:19.865Z,100580.00
2023-04-04T00:39:53.039Z,100574.00
2023-04-04T00:41:26.374Z,100576.00
2023-04-04T00:43:01.428Z,100572.00
2023-04-04T00:44:35.658Z,100582.00
2023-04-04T00:46:14.796Z,100587.00
2023-04-04T00:47:49.110Z,100590.00
2023-04-04T00:49:22.194Z,100591.00
2023-04-04T00:50:54.332Z,100580.00
2023-04-04T00:52:28.061Z,100581.00
2023-04-04T00:54:01.829Z,100582.00
2023-04-04T00:55:36.909Z,100591.00
2023-04-04T00:57:10.012Z,100589.00
2023-04-04T00:58:45.635Z,100591.00
2023-04-04T01:00:18.509Z,100591.00
2023-04-04T01:01:51.716Z,100594.00
2023-04-04T01:03:24.840Z,100590.00
2023-04-04T01:04:58.066Z,100592.00
2023-04-04T01:06:32.704Z,100592.00
2023-04-04T01:08:06.931Z,100589.00
2023-04-04T01:09:40.919Z,100593.00
2023-04-04T01:11:14.232Z,100590.00
2023-04-04T01:12:47.679Z,100583.00
2023-04-04T01:14:22.472Z,100586.00
2023-04-04T01:15:56.061Z,100590.00
2023-04-04T01:17:30.579Z,100574.00
2023-04-04T01:19:09.704Z,100580.00
2023-04-04T01:20:53.609Z,100588.00
2023-04-04T01:22:30.487Z,100582.00
2023-04-04T01:24:05.878Z,100590.00
2023-04-04T01:25:49.712Z,100581.00
2023-04-04T01:27:22.213Z,100566.00
2023-04-04T01:29:03.175Z,100567.00
2023-04-04T01:30:41.158Z,100582.00
2023-04-04T01:32:20.880Z,100568.00
2023-04-04T01:34:08.471Z,100577.00
2023-04-04T01:35:51.888Z,100566.00
2023-04-04T01:37:35.489Z,100569.00
2023-04-04T01:39:24.190Z,100569.00
2023-04-04T01:41:04.353Z,100579.00
2023-04-04T01:42:39.803Z,100576.00
2023-04-04T01:44:15.820Z,100572.00
2023-04-04T01:45:50.627Z,100571.00
2023-04-04T01:47:24.619Z,100576.00
2023-04-04T01:48:57.985Z,100575.00
2023-04-04T01:50:35.693Z,100568.00
2023-04-04T01:52:09.402Z,100575.00
2023-04-04T01:53:42.736Z,100572.00
2023-04-04T01:55:16.138Z,100562.00
2023-04-04T01:56:49.728Z,100568.00
2023-04-04T01:58:23.590Z,100567.00
2023-04-04T01:59:57.198Z,100570.00
2023-04-04T02:01:30.818Z,100559.00
2023-04-04T02:03:04.068Z,100560.00
2023-04-04T02:04:37.486Z,100564.00
2023-04-04T02:06:09.736Z,100563.00
2023-04-04T02:07:43.122Z,100565.00
2023-04-04T02:09:26.459Z,100568.00
2023-04-04T02:11:00.174Z,100564.00
2023-04-04T02:12:35.363Z,100559.00
2023-04-04T02:14:08.645Z,100559.00
2023-04-04T02:15:42.569Z,100561.00
2023-04-04T02:17:15.178Z,100556.00
2023-04-04T02:18:48.718Z,100560.00
2023-04-04T02:20:21.956Z,100556.00
2023-04-04T02:21:54.205Z,100555.00
2023-04-04T02:23:27.322Z,100557.00
2023-04-04T02:25:02.683Z,100551.00
2023-04-04T02:26:36.010Z,100549.00
2023-04-04T02:28:11.414Z,100549.00
2023-04-04T02:29:44.625Z,100553.00
2023-04-04T02:31:17.906Z,100554.00
2023-04-04T02:32:50.652Z,100540.00
2023-04-04T02:34:26.453Z,100548.00
2023-04-04T02:35:59.143Z,100548.00
2023-04-04T02:37:32.329Z,100545.00
2023-04-04T02:39:05.963Z,100551.00
2023-04-04T02:40:41.471Z,100537.00
2023-04-04T02:42:15.452Z,100540.00
2023-04-04T02:43:49.935Z,100538.00
2023-04-04T02:45:23.261Z,100537.00
2023-04-04T02:47:07.280Z,100544.00
2023-04-04T02:48:39.848Z,100546.00
2023-04-04T02:50:13.616Z,100539.00
2023-04-04T02:51:46.807Z,100540.00
2023-04-04T02:53:19.926Z,100545.00
2023-04-04T02:54:55.362Z,100539.00
2023-04-04T02:56:38.367Z,100549.00
2023-04-04T02:58:11.585Z,100543.00
2023-04-04T02:59:46.364Z,100557.00
2023-04-04T03:01:19.665Z,100555.00
2023-04-04T03:02:56.368Z,100549.00
2023-04-04T03:04:36.545Z,100548.00
2023-04-04T03:06:08.790Z,100552.00
2023-04-04T03:07:42.076Z,100547.00
2023-04-04T03:09:15.930Z,100544.00
2023-04-04T03:10:49.158Z,100546.00
2023-04-04T03:12:22.455Z,100552.00
2023-04-04T03:13:57.112Z,100539.00
2023-04-04T03:15:47.391Z,100551.00
2023-04-04T03:17:22.170Z,100547.00
2023-04-04T03:18:56.675Z,100544.00
2023-04-04T03:20:31.313Z,100547.00
2023-04-04T03:22:04.437Z,100542.00
2023-04-04T03:23:40.504Z,100540.00
2023-04-04T03:25:13.718Z,100535.00
2023-04-04T03:26:47.099Z,100532.00
2023-04-04T03:28:20.232Z,100537.00
2023-04-04T03:29:53.834Z,100535.00
2023-04-04T03:31:28.402Z,100532.00
2023-04-04T03:33:08.313Z,100549.00
2023-04-04T03:34:41.486Z,100541.00
2023-04-04T03:36:14.760Z,100545.00
2023-04-04T03:37:47.942Z,100552.00
2023-04-04T03:39:20.251Z,100541.00
2023-04-04T03:41:03.219Z,100530.00
2023-04-04T03:42:36.947Z,100534.00
2023-04-04T03:44:14.789Z,100529.00
2023-04-04T03:45:49.166Z,100530.00
2023-04-04T03:47:23.676Z,100537.00
2023-04-04T03:48:56.952Z,100529.00
2023-04-04T03:50:31.157Z,100526.00
2023-04-04T03:52:05.193Z,100529.00
2023-04-04T03:53:38.414Z,100524.00
2023-04-04T03:55:11.933Z,100522.00
2023-04-04T03:56:45.361Z,100526.00
2023-04-04T03:58:17.685Z,100522.00
2023-04-04T03:59:51.010Z,100514.00
2023-04-04T04:01:24.829Z,100521.00
2023-04-04T04:02:59.316Z,100521.00
2023-04-04T04:04:32.594Z,100511.00
2023-04-04T04:06:06.188Z,100508.00
2023-04-04T04:07:39.466Z,100515.00
2023-04-04T04:09:12.650Z,100516.00
2023-04-04T04:10:45.935Z,100509.00
2023-04-04T04:12:19.158Z,100509.00
2023-04-04T04:13:52.587Z,100504.00
2023-04-04T04:15:26.031Z,100499.00
2023-04-04T04:16:59.412Z,100513.00
2023-04-04T04:18:33.477Z,100512.00
2023-04-04T04:20:09.428Z,100513.00
2023-04-04T04:21:47.959Z,100512.00
2023-04-04T04:23:21.044Z,100506.00
2023-04-04T04:24:56.580Z,100508.00
2023-04-04T04:26:29.707Z,100506.00
2023-04-04T04:28:03.016Z,100507.00
2023-04-04T04:29:36.612Z,100503.00
2023-04-04T04:31:11.625Z,100503.00
2023-04-04T04:32:52.238Z,100500.00
2023-04-04T04:34:31.038Z,100496.00
2023-04-04T04:36:08.653Z,100505.00
2023-04-04T04:37:53.025Z,100516.00
2023-04-04T04:39:27.443Z,100522.00
2023-04-04T04:41:11.443Z,100512.00
2023-04-04T04:42:51.256Z,100509.00
2023-04-04T04:44:28.096Z,100507.00
2023-04-04T04:46:02.573Z,100512.00
2023-04-04T04:47:35.826Z,100511.00
2023-04-04T04:49:11.807Z,100515.00
2023-04-04T04:50:46.994Z,100506.00
2023-04-04T04:52:22.269Z,100502.00
2023-04-04T04:53:55.381Z,100506.00
2023-04-04T04:55:30.652Z,100511.00
2023-04-04T04:57:12.012Z,100503.00
2023-04-04T04:58:50.989Z,100512.00
2023-04-04T05:00:29.126Z,100506.00
2023-04-04T05:02:02.370Z,100506.00
2023-04-04T05:03:36.278Z,100502.00
2023-04-04T05:05:12.512Z,100511.00
2023-04-04T05:06:47.481Z,100515.00
2023-04-04T05:08:20.848Z,100515.00
2023-04-04T05:10:11.228Z,100503.00
2023-04-04T05:11:44.520Z,100517.00
2023-04-04T05:13:19.103Z,100520.00
2023-04-04T05:14:54.370Z,100516.00
2023-04-04T05:16:27.711Z,100514.00
2023-04-04T05:18:04.010Z,100516.00
2023-04-04T05:19:37.298Z,100522.00
2023-04-04T05:21:11.153Z,100532.00
2023-04-04T05:22:46.661Z,100517.00
2023-04-04T05:24:24.819Z,100520.00
2023-04-04T05:25:58.081Z,100523.00
2023-04-04T05:27:35.433Z,100527.00
2023-04-04T05:29:09.101Z,100528.00
2023-04-04T05:30:46.655Z,100527.00
2023-04-04T05:32:23.979Z,100524.00
2023-04-04T05:34:08.545Z,100528.00
2023-04-04T05:35:42.809Z,100539.00
2023-04-04T05:37:17.106Z,100529.00
2023-04-04T05:38:55.449Z,100540.00
2023-04-04T05:40:32.017Z,100541.00
2023-04-04T05:42:12.754Z,100535.00
2023-04-04T05:43:52.308Z,100532.00
2023-04-04T05:45:29.061Z,100528.00
2023-04-04T05:47:02.598Z,100531.00
2023-04-04T05:48:35.797Z,100536.00
2023-04-04T05:50:09.922Z,100545.00
2023-04-04T05:51:44.819Z,100539.00
2023-04-04T05:53:21.002Z,100544.00
2023-04-04T05:54:58.103Z,100547.00
2023-04-04T05:56:35.527Z,100539.00
2023-04-04T05:58:12.607Z,100549.00
2023-04-04T05:59:56.653Z,100540.00
2023-04-04T06:01:30.589Z,100545.00
2023-04-04T06:03:06.161Z,100538.00
2023-04-04T06:04:41.173Z,100549.00
2023-04-04T06:06:16.530Z,100544.00
2023-04-04T06:07:49.656Z,100541.00
2023-04-04T06:09:22.816Z,100538.00
2023-04-04T06:10:57.255Z,100535.00
2023-04-04T06:12:30.435Z,100547.00
2023-04-04T06:14:03.621Z,100547.00
2023-04-04T06:15:36.914Z,100540.00
2023-04-04T06:17:09.975Z,100561.00
2023-04-04T06:18:43.114Z,100561.00
2023-04-04T06:20:16.281Z,100554.00
2023-04-04T06:21:49.517Z,100553.00
2023-04-04T06:23:22.735Z,100554.00
2023-04-04T06:24:57.194Z,100558.00
2023-04-04T06:26:33.817Z,100545.00
2023-04-04T06:28:09.231Z,100548.00
2023-04-04T06:29:42.714Z,100558.00
2023-04-04T06:31:16.035Z,100555.00
2023-04-04T06:32:49.375Z,100554.00
2023-04-04T06:34:26.234Z,100560.00
2023-04-04T06:36:02.634Z,100561.00
2023-04-04T06:37:40.617Z,100569.00
2023-04-04T06:39:23.364Z,100570.00
2023-04-04T06:40:58.812Z,100568.00
2023-04-04T06:42:33.947Z,100567.00
2023-04-04T06:44:10.262Z,100566.00
2023-04-04T06:45:43.638Z,100574.00
2023-04-04T06:47:17.700Z,100567.00
2023-04-04T06:48:51.085Z,100566.00
2023-04-04T06:50:24.627Z,100570.00
2023-04-04T06:51:58.670Z,100575.00
2023-04-04T06:53:34.320Z,100566.00
2023-04-04T06:55:09.012Z,100566.00
2023-04-04T06:56:44.189Z,100560.00
2023-04-04T06:58:18.853Z,100571.00
2023-04-04T06:59:52.106Z,100565.00
2023-04-04T07:01:26.873Z,100564.00
2023-04-04T07:03:12.123Z,100577.00
2023-04-04T07:04:45.363Z,100571.00
2023-04-04T07:06:19.458Z,100572.00
2023-04-04T07:07:54.469Z,100562.00
2023-04-04T07:09:29.552Z,100563.00
2023-04-04T07:11:03.059Z,100566.00
2023-04-04T07:12:36.257Z,100561.00
2023-04-04T07:14:10.719Z,100561.00
2023-04-04T07:15:48.999Z,100567.00
2023-04-04T07:17:25.186Z,100563.00
2023-04-04T07:18:58.954Z,100564.00
2023-04-04T07:20:32.176Z,100571.00
2023-04-04T07:22:06.075Z,100561.00
2023-04-04T07:23:39.170Z,100562.00
2023-04-04T07:25:13.438Z,100557.00
2023-04-04T07:26:47.692Z,100564.00
2023-04-04T07:28:21.781Z,100554.00
2023-04-04T07:29:56.335Z,100554.00
2023-04-04T07:31:29.562Z,100552.00
2023-04-04T07:33:04.474Z,100558.00
2023-04-04T07:34:37.784Z,100550.00
2023-04-04T07:36:10.967Z,100559.00
2023-04-04T07:37:44.467Z,100557.00
2023-04-04T07:39:17.797Z,100553.00
2023-04-04T07:40:51.850Z,100555.00
2023-04-04T07:42:25.262Z,100563.00
2023-04-04T07:43:58.474Z,100554.00
2023-04-04T07:45:32.884Z,100555.00
2023-04-04T07:47:10.339Z,100552.00
2023-04-04T07:48:43.694Z,100545.00
2023-04-04T07:50:17.771Z,100554.00
2023-04-04T07:51:50.928Z,100549.00
2023-04-04T07:53:24.104Z,100553.00
2023-04-04T07:54:57.235Z,100550.00
2023-04-04T07:56:30.405Z,100547.00
2023-04-04T07:58:03.567Z,100547.00
2023-04-04T07:59:37.018Z,100554.00
2023-04-04T08:01:11.452Z,100541.00
2023-04-04T08:02:46.077Z,100547.00
2023-04-04T08:04:19.728Z,100538.00
2023-04-04T08:05:52.972Z,100544.00
2023-04-04T08:07:27.127Z,100542.00
2023-04-04T08:09:01.348Z,100539.00
2023-04-04T08:10:34.590Z,100538.00
2023-04-04T08:12:08.330Z,100535.00
2023-04-04T08:13:41.583Z,100537.00
2023-04-04T08:15:14.790Z,100541.00
2023-04-04T08:16:49.492Z,100531.00
2023-04-04T08:18:22.676Z,100536.00
2023-04-04T08:19:55.978Z,100523.00
2023-04-04T08:21:29.165Z,100528.00
2023-04-04T08:23:02.435Z,100525.00
2023-04-04T08:24:36.621Z,100521.00
2023-04-04T08:26:09.720Z,100521.00
2023-04-04T08:27:44.943Z,100509.00
2023-04-04T08:29:18.518Z,100513.00
2023-04-04T08:30:55.117Z,100509.00
2023-04-04T08:32:29.624Z,100514.00
2023-04-04T08:34:03.011Z,100514.00
2023-04-04T08:35:36.462Z,100513.00
2023-04-04T08:37:10.625Z,100503.00
2023-04-04T08:38:44.538Z,100503.00
2023-04-04T08:40:19.192Z,100496.00
2023-04-04T08:42:02.569Z,100508.00
2023-04-04T08:43:38.383Z,100527.00
2023-04-04T08:45:13.304Z,100515.00
2023-04-04T08:46:58.104Z,100515.00
2023-04-04T08:48:36.729Z,100508.00
2023-04-04T08:50:10.191Z,100511.00
2023-04-04T08:51:46.741Z,100524.00
2023-04-04T08:53:20.998Z,100523.00
2023-04-04T08:54:56.621Z,100519.00
2023-04-04T08:56:32.606Z,100531.00
2023-04-04T08:58:06.200Z,100528.00
2023-04-04T08:59:40.241Z,100509.00
2023-04-04T09:01:13.760Z,100518.00
2023-04-04T09:02:57.681Z,100511.00
2023-04-04T09:04:33.017Z,100506.00
2023-04-04T09:06:07.276Z,100512.00
2023-04-04T09:07:41.624Z,100530.00
2023-04-04T09:09:17.753Z,100512.00
2023-04-04T09:10:52.333Z,100523.00
2023-04-04T09:12:27.239Z,100527.00
2023-04-04T09:14:04.643Z,100521.00
2023-04-04T09:15:41.262Z,100524.00
2023-04-04T09:17:14.450Z,100526.00
2023-04-04T09:18:47.897Z,100516.00
2023-04-04T09:20:43.718Z,100524.00
2023-04-04T09:22:18.429Z,100521.00
2023-04-04T09:24:00.587Z,100518.00
2023-04-04T09:25:34.324Z,100519.00
2023-04-04T09:27:10.471Z,100522.00
2023-04-04T09:28:43.585Z,100521.00
2023-04-04T09:30:17.705Z,100518.00
2023-04-04T09:31:51.940Z,100513.00
2023-04-04T09:33:25.520Z,100506.00
2023-04-04T09:34:58.892Z,100508.00
2023-04-04T09:36:33.531Z,100510.00
2023-04-04T09:38:07.852Z,100514.00
2023-04-04T09:39:43.442Z,100513.00
2023-04-04T09:41:17.685Z,100509.00
2023-04-04T09:42:51.382Z,100502.00
2023-04-04T09:44:25.876Z,100507.00
2023-04-04T09:46:00.244Z,100506.00
2023-04-04T09:47:33.936Z,100513.00
2023-04-04T09:49:13.303Z,100509.00
2023-04-04T09:50:48.038Z,100509.00
2023-04-04T09:52:22.557Z,100507.00
2023-04-04T09:53:59.391Z,100501.00
2023-04-04T09:55:37.472Z,100502.00
2023-04-04T09:57:11.618Z,100504.00
2023-04-04T09:59:02.384Z,100503.00
2023-04-04T10:00:44.962Z,100516.00
2023-04-04T10:02:18.660Z,100501.00
2023-04-04T10:03:54.322Z,100495.00
2023-04-04T10:05:28.832Z,100500.00
2023-04-04T10:07:02.123Z,100499.00
2023-04-04T10:08:41.376Z,100501.00
2023-04-04T10:10:16.469Z,100506.00
2023-04-04T10:11:49.562Z,100490.00
2023-04-04T10:13:25.851Z,100495.00
2023-04-04T10:14:59.832Z,100500.00
2023-04-04T10:16:34.860Z,100485.00
2023-04-04T10:18:09.901Z,100493.00
2023-04-04T10:19:45.109Z,100496.00
2023-04-04T10:21:19.261Z,100492.00
2023-04-04T10:22:52.823Z,100487.00
2023-04-04T10:24:27.636Z,100489.00
2023-04-04T10:26:01.516Z,100483.00
2023-04-04T10:27:35.139Z,100476.00
2023-04-04T10:29:08.768Z,100471.00
2023-04-04T10:31:03.143Z,100473.00
2023-04-04T10:32:53.909Z,100484.00
2023-04-04T10:34:38.154Z,100471.00
2023-04-04T10:36:15.407Z,100472.00
2023-04-04T10:37:58.440Z,100461.00
2023-04-04T10:39:39.445Z,100456.00
2023-04-04T10:41:15.318Z,100468.00
2023-04-04T10:42:52.085Z,100468.00
2023-04-04T10:44:33.610Z,100447.00
2023-04-04T10:46:13.427Z,100458.00
2023-04-04T10:47:47.286Z,100450.00
2023-04-04T10:49:22.342Z,100460.00
2023-04-04T10:50:57.109Z,100456.00
2023-04-04T10:52:32.210Z,100445.00
2023-04-04T10:54:06.300Z,100450.00
2023-04-04T10:55:42.481Z,100442.00
2023-04-04T10:57:17.599Z,100445.00
2023-04-04T10:58:51.335Z,100450.00
2023-04-04T11:00:25.341Z,100448.00
2023-04-04T11:02:00.769Z,100446.00
2023-04-04T11:03:54.534Z,100446.00
2023-04-04T11:05:34.549Z,100445.00
2023-04-04T11:07:17.387Z,100444.00
2023-04-04T11:08:56.072Z,100441.00
2023-04-04T11:10:31.856Z,100438.00
2023-04-04T11:12:19.856Z,100437.00
2023-04-04T11:14:01.808Z,100436.00
2023-04-04T11:15:52.554Z,100443.00
2023-04-04T11:17:51.089Z,100438.00
2023-04-04T11:19:25.392Z,100431.00
2023-04-04T11:21:03.452Z,100433.00
2023-04-04T11:22:37.814Z,100429.00
2023-04-04T11:24:18.866Z,100417.00
2023-04-04T11:25:53.893Z,100415.00
2023-04-04T11:27:26.086Z,100439.00
2023-04-04T11:29:01.234Z,100430.00
2023-04-04T11:30:44.513Z,100428.00
2023-04-04T11:32:50.167Z,100432.00
2023-04-04T11:34:34.515Z,100428.00
2023-04-04T11:36:25.584Z,100417.00
2023-04-04T11:38:02.943Z,100427.00
2023-04-04T11:39:56.565Z,100428.00
2023-04-04T11:41:45.136Z,100419.00
2023-04-04T11:43:20.330Z,100420.00
2023-04-04T11:45:05.752Z,100417.00
2023-04-04T11:46:39.798Z,100411.00
2023-04-04T11:48:16.897Z,100416.00
2023-04-04T11:49:52.529Z,100408.00
2023-04-04T11:51:27.296Z,100413.00
2023-04-04T11:53:00.311Z,100410.00
2023-04-04T11:54:33.532Z,100411.00
2023-04-04T11:56:07.289Z,100404.00
2023-04-04T11:57:43.234Z,100404.00
2023-04-04T11:59:21.556Z,100398.00
2023-04-04T12:00:55.163Z,100404.00
2023-04-04T12:02:32.066Z,100394.00
2023-04-04T12:04:06.193Z,100401.00
2023-04-04T12:05:40.315Z,100403.00
2023-04-04T12:07:15.818Z,100395.00
2023-04-04T12:08:50.126Z,100395.00
2023-04-04T12:10:23.662Z,100391.00
2023-04-04T12:11:57.933Z,100402.00
2023-04-04T12:13:32.960Z,100399.00
2023-04-04T12:15:16.977Z,100401.00
2023-04-04T12:16:54.463Z,100406.00
2023-04-04T12:18:28.336Z,100386.00
2023-04-04T12:20:02.086Z,100395.00
2023-04-04T12:21:35.418Z,100381.00
2023-04-04T12:23:10.485Z,100390.00
2023-04-04T12:24:43.679Z,100389.00
2023-04-04T12:26:18.957Z,100389.00
2023-04-04T12:27:54.516Z,100386.00
2023-04-04T12:29:35.912Z,100376.00
2023-04-04T12:31:10.501Z,100368.00
2023-04-04T12:32:45.410Z,100373.00
2023-04-04T12:34:19.749Z,100370.00
2023-04-04T12:35:54.641Z,100362.00
2023-04-04T12:37:30.486Z,100358.00
2023-04-04T12:39:09.134Z,100358.00
2023-04-04T12:40:42.467Z,100361.00
2023-04-04T12:42:23.206Z,100357.00
2023-04-04T12:44:03.787Z,100366.00
2023-04-04T12:45:40.801Z,100358.00
2023-04-04T12:47:17.932Z,100357.00
2023-04-04T12:48:51.503Z,100352.00
2023-04-04T12:50:28.378Z,100348.00
2023-04-04T12:52:04.757Z,100347.00
2023-04-04T12:53:53.442Z,100342.00
2023-04-04T12:55:32.252Z,100340.00
2023-04-04T12:57:08.038Z,100352.00
2023-04-04T12:58:41.265Z,100342.00
2023-04-04T13:00:15.723Z,100352.00
2023-04-04T13:01:49.786Z,100353.00
2023-04-04T13:03:26.034Z,100345.00
2023-04-04T13:05:00.888Z,100342.00
2023-04-04T13:06:34.336Z,100336.00
2023-04-04T13:08:08.748Z,100332.00
2023-04-04T13:09:54.552Z,100338.00
2023-04-04T13:12:01.915Z,100331.00
2023-04-04T13:13:37.451Z,100325.00
2023-04-04T13:15:11.673Z,100330.00
2023-04-04T13:16:45.365Z,100324.00
2023-04-04T13:18:22.596Z,100326.00
2023-04-04T13:19:56.020Z,100314.00
2023-04-04T13:21:29.197Z,100319.00
2023-04-04T13:23:02.302Z,100310.00
2023-04-04T13:24:35.490Z,100315.00
2023-04-04T13:26:10.587Z,100314.00
2023-04-04T13:27:45.341Z,100310.00
2023-04-04T13:29:18.360Z,100303.00
2023-04-04T13:30:51.579Z,100309.00
2023-04-04T13:32:24.980Z,100312.00
2023-04-04T13:33:58.211Z,100303.00
2023-04-04T13:35:32.112Z,100302.00
2023-04-04T13:37:05.265Z,100305.00
2023-04-04T13:38:38.535Z,100295.00
2023-04-04T13:40:12.574Z,100290.00
2023-04-04T13:41:45.698Z,100299.00
2023-04-04T13:43:20.210Z,100293.00
2023-04-04T13:44:53.381Z,100300.00
2023-04-04T13:46:26.523Z,100297.00
2023-04-04T13:47:59.692Z,100292.00
2023-04-04T13:49:32.797Z,100295.00
2023-04-04T13:51:05.947Z,100301.00
2023-04-04T13:52:39.016Z,100293.00
2023-04-04T13:54:12.831Z,100300.00
2023-04-04T13:56:01.599Z,100293.00
2023-04-04T13:57:39.314Z,100287.00
2023-04-04T13:59:17.665Z,100279.00
2023-04-04T14:00:51.108Z,100281.00
2023-04-04T14:02:24.505Z,100274.00
2023-04-04T14:03:57.775Z,100276.00
2023-04-04T14:05:30.878Z,100277.00
2023-04-04T14:07:04.026Z,100271.00
2023-04-04T14:08:37.183Z,100270.00
2023-04-04T14:10:12.317Z,100268.00
2023-04-04T14:11:47.306Z,100263.00
2023-04-04T14:13:20.707Z,100262.00
2023-04-04T14:14:55.193Z,100262.00
2023-04-04T14:16:28.348Z,100261.00
2023-04-04T14:18:01.502Z,100252.00
2023-04-04T14:19:34.757Z,100251.00
2023-04-04T14:21:08.173Z,100266.00
2023-04-04T14:22:41.469Z,100254.00
2023-04-04T14:24:14.598Z,100252.00
2023-04-04T14:25:49.652Z,100260.00
2023-04-04T14:27:22.737Z,100258.00
2023-04-04T14:28:55.861Z,100258.00
2023-04-04T14:30:30.606Z,100256.00
2023-04-04T14:32:03.971Z,100253.00
2023-04-04T14:33:37.159Z,100256.00
2023-04-04T14:35:10.917Z,100248.00
2023-04-04T14:36:44.102Z,100246.00
2023-04-04T14:38:17.714Z,100231.00
2023-04-04T14:39:50.841Z,100252.00
2023-04-04T14:41:24.125Z,100254.00
2023-04-04T14:42:57.252Z,100237.00
2023-04-04T14:44:31.096Z,100240.00
2023-04-04T14:46:07.433Z,100245.00
2023-04-04T14:47:41.216Z,100247.00
2023-04-04T14:49:14.508Z,100234.00
2023-04-04T14:50:48.059Z,100237.00
2023-04-04T14:52:21.171Z,100236.00
2023-04-04T14:53:54.534Z,100229.00
2023-04-04T14:55:28.057Z,100224.00
2023-04-04T14:57:02.373Z,100227.00
2023-04-04T14:58:35.919Z,100232.00
2023-04-04T15:00:15.882Z,100237.00
2023-04-04T15:01:50.715Z,100223.00
2023-04-04T15:03:30.138Z,100227.00
2023-04-04T15:05:03.323Z,100224.00
2023-04-04T15:06:38.137Z,100218.00
2023-04-04T15:08:11.155Z,100222.00
2023-04-04T15:09:44.407Z,100223.00
2023-04-04T15:11:18.686Z,100215.00
2023-04-04T15:12:51.880Z,100218.00
2023-04-04T15:14:25.032Z,100219.00
2023-04-04T15:16:00.356Z,100222.00
2023-04-04T15:17:34.984Z,100206.00
2023-04-04T15:19:09.897Z,100215.00
2023-04-04T15:20:43.373Z,100212.00
2023-04-04T15:22:16.741Z,100213.00
2023-04-04T15:23:49.849Z,100214.00
2023-04-04T15:25:23.158Z,100214.00
2023-04-04T15:26:57.773Z,100213.00
2023-04-04T15:28:30.915Z,100213.00
2023-04-04T15:30:04.693Z,100199.00
2023-04-04T15:31:38.139Z,100212.00
2023-04-04T15:33:12.913Z,100205.00
2023-04-04T15:34:46.226Z,100205.00
2023-04-04T15:36:19.444Z,100192.00
2023-04-04T15:37:52.808Z,100197.00
2023-04-04T15:39:26.178Z,100205.00
2023-04-04T15:40:59.483Z,100198.00
2023-04-04T15:42:32.815Z,100198.00
2023-04-04T15:44:06.680Z,100197.00
2023-04-04T15:45:39.943Z,100206.00
2023-04-04T15:47:13.205Z,100193.00
2023-04-04T15:48:48.198Z,100195.00
2023-04-04T15:50:21.637Z,100198.00
2023-04-04T15:51:54.834Z,100194.00
2023-04-04T15:53:27.946Z,100195.00
2023-04-04T15:55:01.126Z,100196.00
2023-04-04T15:56:34.307Z,100192.00
2023-04-04T15:58:07.359Z,100193.00
2023-04-04T15:59:40.583Z,100198.00
2023-04-04T16:01:13.792Z,100194.00
2023-04-04T16:02:47.210Z,100195.00
2023-04-04T16:04:21.757Z,100188.00
2023-04-04T16:05:54.950Z,100194.00
2023-04-04T16:07:28.129Z,100195.00
2023-04-04T16:09:01.595Z,100199.00
2023-04-04T16:10:34.741Z,100198.00
2023-04-04T16:12:07.884Z,100198.00
2023-04-04T16:13:41.441Z,100207.00
2023-04-04T16:15:14.613Z,100196.00
2023-04-04T16:16:48.393Z,100199.00
2023-04-04T16:18:21.503Z,100203.00
2023-04-04T16:19:55.890Z,100204.00
2023-04-04T16:21:28.999Z,100201.00
2023-04-04T16:23:02.107Z,100198.00
2023-04-04T16:24:35.670Z,100195.00
2023-04-04T16:26:09.304Z,100192.00
2023-04-04T16:27:42.537Z,100195.00
2023-04-04T16:29:17.600Z,100195.00
2023-04-04T16:30:50.999Z,100190.00
2023-04-04T16:32:24.345Z,100198.00
2023-04-04T16:33:57.521Z,100194.00
2023-04-04T16:35:32.740Z,100200.00
2023-04-04T16:37:06.267Z,100195.00
2023-04-04T16:38:39.612Z,100192.00
2023-04-04T16:40:14.839Z,100183.00
2023-04-04T16:41:48.622Z,100183.00
2023-04-04T16:43:21.968Z,100184.00
2023-04-04T16:44:55.147Z,100189.00
2023-04-04T16:46:28.418Z,100180.00
2023-04-04T16:48:01.568Z,100190.00
2023-04-04T16:49:34.784Z,100184.00
2023-04-04T16:51:09.216Z,100180.00
2023-04-04T16:52:42.422Z,100178.00
2023-04-04T16:54:15.619Z,100170.00
2023-04-04T16:55:48.710Z,100174.00
2023-04-04T16:57:21.862Z,100175.00
2023-04-04T16:58:55.255Z,100175.00
2023-04-04T17:00:28.956Z,100176.00
2023-04-04T17:02:05.127Z,100177.00
2023-04-04T17:03:38.232Z,100174.00
2023-04-04T17:05:11.760Z,100170.00
2023-04-04T17:06:47.071Z,100169.00
2023-04-04T17:08:20.251Z,100175.00
2023-04-04T17:09:53.304Z,100164.00
2023-04-04T17:11:27.059Z,100172.00
2023-04-04T17:13:00.690Z,100167.00
2023-04-04T17:14:34.135Z,100168.00
2023-04-04T17:16:08.146Z,100163.00
2023-04-04T17:17:42.355Z,100168.00
2023-04-04T17:19:15.539Z,100162.00
2023-04-04T17:20:49.002Z,100163.00
2023-04-04T17:22:23.558Z,100156.00
2023-04-04T17:23:56.777Z,100168.00
2023-04-04T17:25:30.873Z,100161.00
2023-04-04T17:27:04.136Z,100160.00
2023-04-04T17:28:37.499Z,100171.00
2023-04-04T17:30:12.705Z,100164.00
2023-04-04T17:31:48.689Z,100164.00
2023-04-04T17:33:23.150Z,100165.00
2023-04-04T17:34:56.453Z,100168.00
2023-04-04T17:36:30.956Z,100169.00
2023-04-04T17:38:05.782Z,100165.00
2023-04-04T17:39:39.359Z,100166.00
2023-04-04T17:41:14.039Z,100168.00
2023-04-04T17:42:47.236Z,100166.00
2023-04-04T17:44:22.097Z,100156.00
2023-04-04T17:45:55.091Z,100156.00
2023-04-04T17:47:28.307Z,100161.00
2023-04-04T17:49:01.565Z,100149.00
2023-04-04T17:50:34.643Z,100173.00
2023-04-04T17:52:08.739Z,100171.00
2023-04-04T17:53:43.142Z,100158.00
2023-04-04T17:55:17.791Z,100165.00
2023-04-04T17:56:50.923Z,100155.00
2023-04-04T17:58:25.695Z,100164.00
2023-04-04T17:59:58.797Z,100166.00
2023-04-04T18:01:31.988Z,100174.00
2023-04-04T18:03:05.811Z,100168.00
2023-04-04T18:04:39.549Z,100176.00
2023-04-04T18:06:12.759Z,100172.00
2023-04-04T18:07:46.143Z,100174.00